createdAt,value
2023-03-15T00:00:26.937Z,70.50
2023-03-15T00:03:16.007Z,70.45
2023-03-15T00:06:04.205Z,70.21
2023-03-15T00:08:46.911Z,70.26
2023-03-15T00:11:31.927Z,70.76
2023-03-15T00:14:20.883Z,70.97
2023-03-15T00:17:09.230Z,71.21
2023-03-15T00:19:51.968Z,70.92
2023-03-15T00:22:40.136Z,70.41
2023-03-15T00:25:23.252Z,70.28
2023-03-15T00:28:13.213Z,70.68
2023-03-15T00:30:56.063Z,71.19
2023-03-15T00:33:45.332Z,71.67
2023-03-15T00:36:30.906Z,71.69
2023-03-15T00:39:20.340Z,72.10
2023-03-15T00:42:04.862Z,71.95
2023-03-15T00:44:59.768Z,71.84
2023-03-15T00:47:48.871Z,71.76
2023-03-15T00:50:31.259Z,71.60
2023-03-15T00:53:19.930Z,71.20
2023-03-15T00:56:02.934Z,71.56
2023-03-15T00:58:51.926Z,72.12
2023-03-15T01:01:37.234Z,72.02
2023-03-15T01:04:25.921Z,72.47
2023-03-15T01:07:08.626Z,72.27
2023-03-15T01:09:59.872Z,72.14
2023-03-15T01:12:49.948Z,72.05
2023-03-15T01:15:38.190Z,72.04
2023-03-15T01:18:20.911Z,72.14
2023-03-15T01:21:03.123Z,72.09
2023-03-15T01:23:52.952Z,72.40
2023-03-15T01:26:41.168Z,72.18
2023-03-15T01:29:25.900Z,72.20
2023-03-15T01:32:10.217Z,72.30
2023-03-15T01:34:58.863Z,72.65
2023-03-15T01:37:49.112Z,72.03
2023-03-15T01:40:31.177Z,72.28
2023-03-15T01:43:28.903Z,72.28
2023-03-15T01:46:26.295Z,71.91
2023-03-15T01:49:38.948Z,71.42
2023-03-15T01:52:28.210Z,71.39
2023-03-15T01:55:26.920Z,71.35
2023-03-15T01:58:20.228Z,70.92
2023-03-15T02:01:10.992Z,70.25
2023-03-15T02:04:00.252Z,69.75
2023-03-15T02:06:55.903Z,69.89
2023-03-15T02:10:09.936Z,70.26
2023-03-15T02:13:00.577Z,70.70
2023-03-15T02:15:53.863Z,68.40
2023-03-15T02:18:43.245Z,67.88
2023-03-15T02:21:43.940Z,66.30
2023-03-15T02:24:45.048Z,64.12
2023-03-15T02:27:38.993Z,63.15
2023-03-15T02:30:23.196Z,62.14
2023-03-15T02:33:15.863Z,60.33
2023-03-15T02:35:58.264Z,58.99
2023-03-15T02:38:46.940Z,57.18
2023-03-15T02:41:46.290Z,58.21
2023-03-15T02:44:40.878Z,59.22
2023-03-15T02:47:35.247Z,58.03
2023-03-15T02:50:17.861Z,57.35
2023-03-15T02:53:08.161Z,56.13
2023-03-15T02:55:50.917Z,55.55
2023-03-15T02:58:39.215Z,56.29
2023-03-15T03:01:24.028Z,55.89
2023-03-15T03:04:13.146Z,54.12
2023-03-15T03:06:55.972Z,52.80
2023-03-15T03:09:46.484Z,53.01
2023-03-15T03:12:36.912Z,53.77
2023-03-15T03:15:25.158Z,52.76
2023-03-15T03:18:07.928Z,52.15
2023-03-15T03:20:56.902Z,52.72
2023-03-15T03:23:41.276Z,53.90
2023-03-15T03:26:29.944Z,55.60
2023-03-15T03:29:19.840Z,52.41
2023-03-15T03:32:04.056Z,52.38
2023-03-15T03:34:55.882Z,52.79
2023-03-15T03:37:38.391Z,51.63
2023-03-15T03:40:37.930Z,51.82
2023-03-15T03:43:27.082Z,51.71
2023-03-15T03:46:16.010Z,50.35
2023-03-15T03:49:01.378Z,49.82
2023-03-15T03:51:49.828Z,49.07
2023-03-15T03:54:33.356Z,50.69
2023-03-15T03:57:23.159Z,51.43
2023-03-15T04:00:12.854Z,48.48
2023-03-15T04:02:55.965Z,47.97
2023-03-15T04:05:47.219Z,49.02
2023-03-15T04:08:33.847Z,47.51
2023-03-15T04:11:26.570Z,48.53
2023-03-15T04:14:13.574Z,47.39
2023-03-15T04:17:06.045Z,47.23
2023-03-15T04:19:51.258Z,46.38
2023-03-15T04:22:45.801Z,46.21
2023-03-15T04:25:36.853Z,45.68
2023-03-15T04:28:51.986Z,46.21
2023-03-15T04:31:54.766Z,46.87
2023-03-15T04:35:07.860Z,44.77
2023-03-15T04:38:12.794Z,45.66
2023-03-15T04:41:19.704Z,44.16
2023-03-15T04:44:22.624Z,44.84
2023-03-15T04:47:29.933Z,43.93
2023-03-15T04:50:31.819Z,42.91
2023-03-15T04:53:37.012Z,43.73
2023-03-15T04:56:47.078Z,43.76
2023-03-15T04:59:50.234Z,43.15
2023-03-15T05:03:02.990Z,43.18
2023-03-15T05:06:05.247Z,41.68
2023-03-15T05:09:22.560Z,42.83
2023-03-15T05:12:44.941Z,43.30
2023-03-15T05:15:55.834Z,42.74
2023-03-15T05:18:59.157Z,43.59
2023-03-15T05:22:18.149Z,42.17
2023-03-15T05:25:32.046Z,42.24
2023-03-15T05:28:55.153Z,42.57
2023-03-15T05:31:47.053Z,39.89
2023-03-15T05:35:03.077Z,40.94
2023-03-15T05:38:16.864Z,40.48
2023-03-15T05:41:30.092Z,39.71
2023-03-15T05:44:44.012Z,39.70
2023-03-15T05:47:55.001Z,39.11
2023-03-15T05:50:47.110Z,38.26
2023-03-15T05:53:56.349Z,39.35
2023-03-15T05:56:54.558Z,38.61
2023-03-15T06:00:23.757Z,37.04
2023-03-15T06:03:15.836Z,40.29
2023-03-15T06:06:16.232Z,40.21
2023-03-15T06:08:58.832Z,39.35
2023-03-15T06:11:47.734Z,38.35
2023-03-15T06:14:29.811Z,37.39
2023-03-15T06:17:22.696Z,37.62
2023-03-15T06:20:05.814Z,37.85
2023-03-15T06:22:55.689Z,38.26
2023-03-15T06:25:48.966Z,38.72
2023-03-15T06:28:37.679Z,39.00
2023-03-15T06:31:28.699Z,37.91
2023-03-15T06:34:21.804Z,39.44
2023-03-15T06:37:03.621Z,39.86
2023-03-15T06:39:52.226Z,39.98
2023-03-15T06:42:34.632Z,39.05
2023-03-15T06:45:32.479Z,40.04
2023-03-15T06:48:27.637Z,38.53
2023-03-15T06:51:10.061Z,37.18
2023-03-15T06:53:58.613Z,38.55
2023-03-15T06:56:42.705Z,36.83
2023-03-15T06:59:31.658Z,38.11
2023-03-15T07:02:32.730Z,39.18
2023-03-15T07:05:20.835Z,38.74
2023-03-15T07:08:02.674Z,38.47
2023-03-15T07:10:51.228Z,37.32
2023-03-15T07:13:32.968Z,36.78
2023-03-15T07:16:20.904Z,36.83
2023-03-15T07:19:03.667Z,35.96
2023-03-15T07:21:52.720Z,35.98
2023-03-15T07:24:35.579Z,36.11
2023-03-15T07:27:19.304Z,37.17
2023-03-15T07:30:08.674Z,39.24
2023-03-15T07:32:50.712Z,35.39
2023-03-15T07:35:39.683Z,36.67
2023-03-15T07:38:32.792Z,38.03
2023-03-15T07:41:15.639Z,38.59
2023-03-15T07:44:05.813Z,39.50
2023-03-15T07:46:54.692Z,38.58
2023-03-15T07:49:42.918Z,38.08
2023-03-15T07:52:24.617Z,38.70
2023-03-15T07:55:13.950Z,39.93
2023-03-15T07:57:55.695Z,39.33
2023-03-15T08:00:43.867Z,40.10
2023-03-15T08:03:25.734Z,39.19
2023-03-15T08:06:07.816Z,39.34
2023-03-15T08:08:56.622Z,39.00
2023-03-15T08:11:45.726Z,38.88
2023-03-15T08:14:27.973Z,38.37
2023-03-15T08:17:16.951Z,36.71
2023-03-15T08:19:58.678Z,35.83
2023-03-15T08:22:47.664Z,36.92
2023-03-15T08:25:32.008Z,35.35
2023-03-15T08:28:20.612Z,33.19
2023-03-15T08:31:09.710Z,33.66
2023-03-15T08:33:57.902Z,36.83
2023-03-15T08:36:39.725Z,38.08
2023-03-15T08:39:27.889Z,38.07
2023-03-15T08:42:09.625Z,38.27
2023-03-15T08:45:00.264Z,39.44
2023-03-15T08:47:42.711Z,39.62
2023-03-15T08:50:33.730Z,39.47
2023-03-15T08:53:15.725Z,39.37
2023-03-15T08:55:57.966Z,38.95
2023-03-15T08:58:46.690Z,39.41
2023-03-15T09:01:35.580Z,38.71
2023-03-15T09:04:18.605Z,39.37
2023-03-15T09:07:06.860Z,39.25
2023-03-15T09:09:49.575Z,37.10
2023-03-15T09:12:44.682Z,37.34
2023-03-15T09:15:32.755Z,37.93
2023-03-15T09:18:14.934Z,38.40
2023-03-15T09:20:57.778Z,37.30
2023-03-15T09:23:46.624Z,38.82
2023-03-15T09:26:34.834Z,38.53
2023-03-15T09:29:19.677Z,36.45
2023-03-15T09:32:09.631Z,39.13
2023-03-15T09:34:52.141Z,39.22
2023-03-15T09:37:40.686Z,39.42
2023-03-15T09:40:31.911Z,40.25
2023-03-15T09:43:21.570Z,39.74
2023-03-15T09:46:13.599Z,40.66
2023-03-15T09:49:56.499Z,40.30
2023-03-15T09:52:51.641Z,41.24
2023-03-15T09:55:34.792Z,41.34
2023-03-15T09:58:42.658Z,40.69
2023-03-15T10:01:25.947Z,39.85
2023-03-15T10:04:16.678Z,40.22
2023-03-15T10:07:03.834Z,40.57
2023-03-15T10:09:53.695Z,40.60
2023-03-15T10:12:44.835Z,41.82
2023-03-15T10:15:52.740Z,39.42
2023-03-15T10:19:04.872Z,38.44
2023-03-15T10:22:20.993Z,38.40
2023-03-15T10:25:17.053Z,38.24
2023-03-15T10:28:37.638Z,38.83
2023-03-15T10:31:43.440Z,38.16
2023-03-15T10:34:33.091Z,38.44
2023-03-15T10:37:17.667Z,37.24
2023-03-15T10:40:11.088Z,37.26
2023-03-15T10:42:54.770Z,35.27
2023-03-15T10:45:43.842Z,34.56
2023-03-15T10:48:41.561Z,35.50
2023-03-15T10:51:36.806Z,35.40
2023-03-15T10:54:26.651Z,35.45
2023-03-15T10:57:23.873Z,34.49
2023-03-15T11:00:24.638Z,35.37
2023-03-15T11:03:22.884Z,38.58
2023-03-15T11:06:06.701Z,39.31
2023-03-15T11:08:55.544Z,39.25
2023-03-15T11:11:44.696Z,38.03
2023-03-15T11:14:41.833Z,39.62
2023-03-15T11:17:38.702Z,39.11
2023-03-15T11:20:37.824Z,40.62
2023-03-15T11:23:28.944Z,40.60
2023-03-15T11:26:33.486Z,39.23
2023-03-15T11:29:35.740Z,39.84
2023-03-15T11:32:40.679Z,39.35
2023-03-15T11:35:45.134Z,39.80
2023-03-15T11:38:45.752Z,40.74
2023-03-15T11:41:36.758Z,41.71
2023-03-15T11:44:35.320Z,42.07
2023-03-15T11:47:48.605Z,42.91
2023-03-15T11:50:38.172Z,41.99
2023-03-15T11:53:24.611Z,43.44
2023-03-15T11:56:26.414Z,44.21
2023-03-15T11:59:24.673Z,44.33
2023-03-15T12:02:14.898Z,43.33
2023-03-15T12:05:17.644Z,44.56
2023-03-15T12:08:17.039Z,43.97
2023-03-15T12:11:06.699Z,43.98
2023-03-15T12:14:04.668Z,44.67
2023-03-15T12:16:56.615Z,43.78
2023-03-15T12:19:44.819Z,44.17
2023-03-15T12:22:27.624Z,41.32
2023-03-15T12:25:54.104Z,41.57
2023-03-15T12:28:56.656Z,40.84
2023-03-15T12:32:11.824Z,41.61
2023-03-15T12:35:00.615Z,40.13
2023-03-15T12:37:54.415Z,40.82
2023-03-15T12:41:08.638Z,41.02
2023-03-15T12:43:58.845Z,41.90
2023-03-15T12:46:53.673Z,43.07
2023-03-15T12:49:45.847Z,43.23
2023-03-15T12:52:27.638Z,44.15
2023-03-15T12:55:25.867Z,45.35
2023-03-15T12:58:12.618Z,46.91
2023-03-15T13:01:01.887Z,45.92
2023-03-15T13:03:47.514Z,45.29
2023-03-15T13:07:08.254Z,46.14
2023-03-15T13:10:17.700Z,46.00
2023-03-15T13:13:15.784Z,46.49
2023-03-15T13:16:24.784Z,49.49
2023-03-15T13:19:28.829Z,49.34
2023-03-15T13:22:32.644Z,50.05
2023-03-15T13:25:27.887Z,50.30
2023-03-15T13:28:21.672Z,50.98
2023-03-15T13:31:18.782Z,51.28
2023-03-15T13:34:11.669Z,51.13
2023-03-15T13:37:06.884Z,51.06
2023-03-15T13:40:03.655Z,51.26
2023-03-15T13:42:52.876Z,51.51
2023-03-15T13:45:34.618Z,51.19
2023-03-15T13:48:23.071Z,51.98
2023-03-15T13:51:23.675Z,51.54
2023-03-15T13:54:14.876Z,52.18
2023-03-15T13:57:14.659Z,51.89
2023-03-15T14:00:09.666Z,52.56
2023-03-15T14:02:51.877Z,52.48
2023-03-15T14:05:49.710Z,52.78
2023-03-15T14:08:47.899Z,52.88
2023-03-15T14:11:45.580Z,53.33
2023-03-15T14:14:33.621Z,53.11
2023-03-15T14:17:37.694Z,53.85
2023-03-15T14:20:25.405Z,54.07
2023-03-15T14:23:17.604Z,54.34
2023-03-15T14:26:09.715Z,54.96
2023-03-15T14:29:05.974Z,53.88
2023-03-15T14:31:53.710Z,54.57
2023-03-15T14:34:44.635Z,55.82
2023-03-15T14:37:53.924Z,55.90
2023-03-15T14:40:45.672Z,56.06
2023-03-15T14:43:27.772Z,56.70
2023-03-15T14:46:16.701Z,54.41
2023-03-15T14:49:11.676Z,54.58
2023-03-15T14:52:12.839Z,56.41
2023-03-15T14:54:57.603Z,59.70
2023-03-15T14:57:41.478Z,58.89
2023-03-15T15:00:32.684Z,58.49
2023-03-15T15:03:44.023Z,56.69
2023-03-15T15:06:25.680Z,57.98
2023-03-15T15:09:13.881Z,57.95
2023-03-15T15:11:56.052Z,59.11
2023-03-15T15:14:43.886Z,55.60
2023-03-15T15:17:25.677Z,58.21
2023-03-15T15:20:16.380Z,56.76
2023-03-15T15:22:57.717Z,58.28
2023-03-15T15:25:46.838Z,59.58
2023-03-15T15:28:35.469Z,59.96
2023-03-15T15:31:27.916Z,58.81
2023-03-15T15:34:09.602Z,57.14
2023-03-15T15:36:58.024Z,58.95
2023-03-15T15:39:40.582Z,58.88
2023-03-15T15:42:29.638Z,58.63
2023-03-15T15:45:19.079Z,57.81
2023-03-15T15:48:14.167Z,58.42
2023-03-15T15:50:55.462Z,58.33
2023-03-15T15:53:46.651Z,58.10
2023-03-15T15:56:36.153Z,57.63
2023-03-15T15:59:27.603Z,58.04
2023-03-15T16:02:22.966Z,57.23
2023-03-15T16:05:11.610Z,58.05
2023-03-15T16:07:54.512Z,57.43
2023-03-15T16:10:44.648Z,58.08
2023-03-15T16:13:33.801Z,56.94
2023-03-15T16:16:23.057Z,56.74
2023-03-15T16:19:10.973Z,55.83
2023-03-15T16:21:57.667Z,56.62
2023-03-15T16:24:47.802Z,54.09
2023-03-15T16:27:41.569Z,54.46
2023-03-15T16:30:46.374Z,51.01
2023-03-15T16:33:38.623Z,51.38
2023-03-15T16:36:29.667Z,50.72
2023-03-15T16:39:11.901Z,49.85
2023-03-15T16:42:00.633Z,49.29
2023-03-15T16:44:44.674Z,50.51
2023-03-15T16:47:40.556Z,47.72
2023-03-15T16:50:27.924Z,47.64
2023-03-15T16:53:15.668Z,46.16
2023-03-15T16:56:03.845Z,46.90
2023-03-15T16:58:45.617Z,47.11
2023-03-15T17:01:37.183Z,47.93
2023-03-15T17:04:19.806Z,48.25
2023-03-15T17:07:08.094Z,47.66
2023-03-15T17:09:56.732Z,47.67
2023-03-15T17:12:49.631Z,49.00
2023-03-15T17:15:36.835Z,48.27
2023-03-15T17:18:31.933Z,48.75
2023-03-15T17:21:27.514Z,49.28
2023-03-15T17:24:20.762Z,48.77
2023-03-15T17:27:04.206Z,46.98
2023-03-15T17:29:52.545Z,46.78
2023-03-15T17:32:34.903Z,47.33
2023-03-15T17:35:27.652Z,47.00
2023-03-15T17:38:22.605Z,47.10
2023-03-15T17:41:38.651Z,47.73
2023-03-15T17:44:20.759Z,47.69
2023-03-15T17:47:09.653Z,48.80
2023-03-15T17:50:04.627Z,49.28
2023-03-15T17:52:49.017Z,48.89
2023-03-15T17:55:42.601Z,48.02
2023-03-15T17:58:27.738Z,47.67
2023-03-15T18:01:20.837Z,47.54
2023-03-15T18:04:05.144Z,47.94
2023-03-15T18:06:53.737Z,46.67
2023-03-15T18:09:41.763Z,46.62
2023-03-15T18:12:25.588Z,46.30
2023-03-15T18:15:08.114Z,46.85
2023-03-15T18:17:56.640Z,48.19
2023-03-15T18:20:46.399Z,48.91
2023-03-15T18:23:27.711Z,50.18
2023-03-15T18:26:18.194Z,47.68
2023-03-15T18:28:59.566Z,48.13
2023-03-15T18:31:48.965Z,48.61
2023-03-15T18:34:30.639Z,48.98
2023-03-15T18:37:19.001Z,48.87
2023-03-15T18:40:01.859Z,50.37
2023-03-15T18:42:51.032Z,50.17
2023-03-15T18:45:38.657Z,50.87
2023-03-15T18:48:40.806Z,50.70
2023-03-15T18:51:32.698Z,50.01
2023-03-15T18:54:14.952Z,50.78
2023-03-15T18:57:03.726Z,50.92
2023-03-15T18:59:45.989Z,51.39
2023-03-15T19:02:34.655Z,50.93
2023-03-15T19:05:17.994Z,50.94
2023-03-15T19:08:06.632Z,51.12
2023-03-15T19:10:48.924Z,51.68
2023-03-15T19:13:37.635Z,51.89
2023-03-15T19:16:26.664Z,51.38
2023-03-15T19:19:14.872Z,51.97
2023-03-15T19:21:56.668Z,51.16
2023-03-15T19:24:44.910Z,52.14
2023-03-15T19:27:27.638Z,52.14
2023-03-15T19:30:21.733Z,52.46
2023-03-15T19:33:04.099Z,52.21
2023-03-15T19:35:52.649Z,52.14
2023-03-15T19:38:36.019Z,51.60
2023-03-15T19:41:24.942Z,51.87
2023-03-15T19:44:06.828Z,51.31
2023-03-15T19:46:55.650Z,51.84
2023-03-15T19:49:43.856Z,51.21
2023-03-15T19:52:25.661Z,50.61
2023-03-15T19:55:21.632Z,51.10
2023-03-15T19:58:03.645Z,50.54
2023-03-15T20:00:52.597Z,51.42
2023-03-15T20:03:40.953Z,50.88
2023-03-15T20:06:22.642Z,51.84
2023-03-15T20:09:12.131Z,50.38
2023-03-15T20:11:53.652Z,51.21
2023-03-15T20:14:42.603Z,51.65
2023-03-15T20:17:26.317Z,51.20
2023-03-15T20:20:18.684Z,52.09
2023-03-15T20:23:07.681Z,51.73
2023-03-15T20:25:51.004Z,51.83
2023-03-15T20:28:39.652Z,52.13
2023-03-15T20:31:29.843Z,52.04
2023-03-15T20:34:13.438Z,52.49
2023-03-15T20:37:03.194Z,51.57
2023-03-15T20:39:44.857Z,52.57
2023-03-15T20:42:33.645Z,51.60
2023-03-15T20:45:16.850Z,52.52
2023-03-15T20:48:06.246Z,51.85
2023-03-15T20:50:48.483Z,52.88
2023-03-15T20:53:36.671Z,51.82
2023-03-15T20:56:19.028Z,52.90
2023-03-15T20:59:07.551Z,52.40
2023-03-15T21:01:49.857Z,52.95
2023-03-15T21:04:38.754Z,52.74
2023-03-15T21:07:21.034Z,52.95
2023-03-15T21:10:09.617Z,53.12
2023-03-15T21:12:51.853Z,52.51
2023-03-15T21:15:41.630Z,53.74
2023-03-15T21:18:31.649Z,53.75
2023-03-15T21:21:13.777Z,53.17
2023-03-15T21:24:02.692Z,53.86
2023-03-15T21:26:47.730Z,53.41
2023-03-15T21:29:36.664Z,54.19
2023-03-15T21:32:24.941Z,54.10
2023-03-15T21:35:06.681Z,54.29
2023-03-15T21:37:56.919Z,54.52
2023-03-15T21:40:38.618Z,53.89
2023-03-15T21:43:27.923Z,53.96
2023-03-15T21:46:15.669Z,53.97
2023-03-15T21:49:10.648Z,53.93
2023-03-15T21:52:00.045Z,54.76
2023-03-15T21:54:42.836Z,55.28
2023-03-15T21:57:32.569Z,55.87
2023-03-15T22:00:27.610Z,55.48
2023-03-15T22:03:17.572Z,56.50
2023-03-15T22:05:59.644Z,56.62
2023-03-15T22:08:48.891Z,56.30
2023-03-15T22:11:30.582Z,55.63
2023-03-15T22:14:12.592Z,54.54
2023-03-15T22:17:01.684Z,55.30
2023-03-15T22:19:43.517Z,53.96
2023-03-15T22:22:32.587Z,55.28
2023-03-15T22:25:21.970Z,54.05
2023-03-15T22:28:03.570Z,55.49
2023-03-15T22:30:54.835Z,54.94
2023-03-15T22:33:36.552Z,55.23
2023-03-15T22:36:18.638Z,55.58
2023-03-15T22:39:09.984Z,54.36
2023-03-15T22:41:51.502Z,55.53
2023-03-15T22:44:39.557Z,55.77
2023-03-15T22:47:28.592Z,55.03
2023-03-15T22:50:21.706Z,56.44
2023-03-15T22:53:03.613Z,55.54
2023-03-15T22:55:51.776Z,56.40
2023-03-15T22:58:34.551Z,56.34
2023-03-15T23:01:16.669Z,56.53
2023-03-15T23:04:05.585Z,56.40
2023-03-15T23:06:47.509Z,56.10
2023-03-15T23:09:35.811Z,56.94
2023-03-15T23:12:33.777Z,56.85
2023-03-15T23:15:20.556Z,56.81
2023-03-15T23:18:02.603Z,56.38
2023-03-15T23:20:51.549Z,57.28
2023-03-15T23:23:40.630Z,57.77
2023-03-15T23:26:26.020Z,57.83
2023-03-15T23:29:23.617Z,58.40
2023-03-15T23:32:05.784Z,57.96
2023-03-15T23:34:54.660Z,59.20
2023-03-15T23:37:36.848Z,59.11
2023-03-15T23:40:26.909Z,59.32
2023-03-15T23:43:10.013Z,58.69
2023-03-15T23:46:03.672Z,58.48
2023-03-15T23:48:59.462Z,58.61
2023-03-15T23:51:47.644Z,58.14
2023-03-15T23:54:29.723Z,58.79
2023-03-15T23:57:20.588Z,57.93
